createdAt,value
2018-12-13T00:00:06.853Z,13.87
2018-12-13T00:02:36.226Z,13.53
2018-12-13T00:05:05.425Z,14.23
2018-12-13T00:07:34.390Z,13.77
2018-12-13T00:10:03.577Z,13.40
2018-12-13T00:12:38.828Z,13.10
2018-12-13T00:15:08.325Z,14.60
2018-12-13T00:17:38.129Z,14.80
2018-12-13T00:20:08.217Z,14.77
2018-12-13T00:22:37.468Z,17.03
2018-12-13T00:25:07.697Z,15.57
2018-12-13T00:27:36.930Z,14.70
2018-12-13T00:30:06.083Z,14.73
2018-12-13T00:32:35.347Z,15.13
2018-12-13T00:35:04.595Z,14.47
2018-12-13T00:37:33.644Z,13.40
2018-12-13T00:40:02.979Z,15.60
2018-12-13T00:42:32.025Z,13.33
2018-12-13T00:45:01.193Z,14.07
2018-12-13T00:47:30.235Z,13.77
2018-12-13T00:49:59.319Z,14.70
2018-12-13T00:52:28.912Z,14.33
2018-12-13T00:54:58.376Z,13.80
2018-12-13T00:57:28.181Z,14.53
2018-12-13T00:59:57.223Z,14.73
2018-12-13T01:02:26.320Z,14.80
2018-12-13T01:04:55.377Z,16.47
2018-12-13T01:07:24.799Z,14.33
2018-12-13T01:09:53.786Z,14.97
2018-12-13T01:12:22.937Z,15.00
2018-12-13T01:14:52.964Z,14.40
2018-12-13T01:17:22.084Z,13.90
2018-12-13T01:19:51.056Z,13.67
2018-12-13T01:22:20.138Z,13.83
2018-12-13T01:24:49.363Z,13.10
2018-12-13T01:27:18.493Z,13.57
2018-12-13T01:29:47.633Z,15.43
2018-12-13T01:32:16.846Z,13.63
2018-12-13T01:34:46.146Z,13.40
2018-12-13T01:37:15.090Z,12.30
2018-12-13T01:39:44.195Z,13.40
2018-12-13T01:42:13.502Z,14.03
2018-12-13T01:44:42.615Z,13.33
2018-12-13T01:47:11.583Z,13.97
2018-12-13T01:49:40.768Z,13.20
2018-12-13T01:52:09.972Z,15.40
2018-12-13T01:54:39.361Z,13.67
2018-12-13T01:57:08.774Z,14.07
2018-12-13T01:59:37.898Z,12.73
2018-12-13T02:02:07.003Z,12.23
2018-12-13T02:04:35.962Z,11.13
2018-12-13T02:07:05.142Z,11.80
2018-12-13T02:09:34.133Z,12.03
2018-12-13T02:12:03.311Z,11.40
2018-12-13T02:14:32.698Z,10.97
2018-12-13T02:17:02.995Z,10.60
2018-12-13T02:19:32.488Z,11.13
2018-12-13T02:22:02.033Z,9.77
2018-12-13T02:24:31.179Z,10.53
2018-12-13T02:27:00.208Z,9.77
2018-12-13T02:29:29.477Z,10.00
2018-12-13T02:31:58.503Z,11.10
2018-12-13T02:34:27.561Z,10.53
2018-12-13T02:36:56.564Z,10.63
2018-12-13T02:39:25.479Z,10.37
2018-12-13T02:41:54.738Z,11.20
2018-12-13T02:44:26.629Z,11.60
2018-12-13T02:46:55.827Z,10.77
2018-12-13T02:49:25.046Z,11.00
2018-12-13T02:51:54.303Z,10.23
2018-12-13T02:54:23.368Z,10.43
2018-12-13T02:56:53.074Z,10.97
2018-12-13T02:59:22.222Z,11.43
2018-12-13T03:01:51.864Z,11.37
2018-12-13T03:04:20.916Z,11.50
2018-12-13T03:06:49.862Z,11.10
2018-12-13T03:09:19.245Z,11.93
2018-12-13T03:11:48.429Z,12.10
2018-12-13T03:14:17.391Z,11.70
2018-12-13T03:16:46.799Z,12.23
2018-12-13T03:19:15.831Z,11.80
2018-12-13T03:21:44.862Z,10.70
2018-12-13T03:24:15.848Z,11.90
2018-12-13T03:26:44.892Z,10.80
2018-12-13T03:29:13.966Z,12.97
2018-12-13T03:31:43.252Z,13.10
2018-12-13T03:34:12.453Z,12.93
2018-12-13T03:36:41.384Z,11.60
2018-12-13T03:39:10.386Z,11.83
2018-12-13T03:41:39.840Z,12.60
2018-12-13T03:44:08.929Z,13.13
2018-12-13T03:46:38.448Z,11.73
2018-12-13T03:49:07.480Z,12.60
2018-12-13T03:51:36.913Z,12.90
2018-12-13T03:54:05.860Z,11.97
2018-12-13T03:56:34.835Z,14.13
2018-12-13T03:59:04.248Z,13.27
2018-12-13T04:01:33.479Z,11.17
2018-12-13T04:04:02.682Z,13.23
2018-12-13T04:06:32.144Z,12.53
2018-12-13T04:09:01.164Z,14.20
2018-12-13T04:11:32.671Z,11.80
2018-12-13T04:14:01.866Z,12.53
2018-12-13T04:16:31.433Z,11.53
2018-12-13T04:19:00.567Z,11.77
2018-12-13T04:21:29.754Z,12.70
2018-12-13T04:23:58.746Z,13.23
2018-12-13T04:26:27.932Z,13.53
2018-12-13T04:28:57.059Z,13.20
2018-12-13T04:31:26.117Z,13.57
2018-12-13T04:33:55.076Z,12.97
2018-12-13T04:36:24.023Z,13.13
2018-12-13T04:38:53.007Z,12.57
2018-12-13T04:41:22.028Z,12.93
2018-12-13T04:43:51.129Z,13.60
2018-12-13T04:46:20.040Z,14.40
2018-12-13T04:48:49.604Z,14.97
2018-12-13T04:51:18.654Z,13.53
2018-12-13T04:53:47.901Z,14.83
2018-12-13T04:56:17.151Z,13.97
2018-12-13T04:58:46.156Z,16.77
2018-12-13T05:01:15.495Z,13.97
2018-12-13T05:03:44.459Z,13.47
2018-12-13T05:06:13.501Z,16.03
2018-12-13T05:08:42.625Z,13.60
2018-12-13T05:11:11.790Z,15.43
2018-12-13T05:13:42.113Z,14.53
2018-12-13T05:16:11.258Z,12.40
2018-12-13T05:18:40.324Z,13.33
2018-12-13T05:21:09.522Z,13.47
2018-12-13T05:23:38.701Z,13.93
2018-12-13T05:26:07.734Z,15.63
2018-12-13T05:28:36.901Z,12.70
2018-12-13T05:31:05.926Z,13.23
2018-12-13T05:33:34.955Z,12.73
2018-12-13T05:36:04.128Z,13.90
2018-12-13T05:38:33.067Z,15.27
2018-12-13T05:41:02.145Z,13.77
2018-12-13T05:43:31.153Z,14.50
2018-12-13T05:46:00.253Z,14.97
2018-12-13T05:48:29.853Z,15.07
2018-12-13T05:50:59.034Z,16.27
2018-12-13T05:53:28.284Z,14.07
2018-12-13T05:55:58.808Z,14.63
2018-12-13T05:58:28.051Z,14.50
2018-12-13T06:00:58.314Z,15.37
2018-12-13T06:03:27.399Z,16.17
2018-12-13T06:05:56.388Z,16.83
2018-12-13T06:08:25.422Z,16.67
2018-12-13T06:10:54.419Z,18.47
2018-12-13T06:13:23.473Z,17.67
2018-12-13T06:15:52.509Z,16.43
2018-12-13T06:18:21.612Z,16.07
2018-12-13T06:20:50.749Z,12.93
2018-12-13T06:23:19.850Z,15.07
2018-12-13T06:25:50.512Z,15.50
2018-12-13T06:28:19.794Z,14.37
2018-12-13T06:30:49.377Z,15.53
2018-12-13T06:33:24.668Z,15.83
2018-12-13T06:35:49.685Z,14.60
2018-12-13T06:38:18.714Z,15.30
2018-12-13T06:40:47.993Z,17.60
2018-12-13T06:43:17.049Z,16.60
2018-12-13T06:45:46.081Z,16.77
2018-12-13T06:48:15.298Z,14.53
2018-12-13T06:50:44.720Z,16.47
2018-12-13T06:53:13.855Z,17.00
2018-12-13T06:55:43.076Z,14.70
2018-12-13T06:58:12.185Z,15.37
2018-12-13T07:00:41.537Z,15.37
2018-12-13T07:03:10.949Z,17.80
2018-12-13T07:05:41.419Z,14.73
2018-12-13T07:08:11.364Z,14.67
2018-12-13T07:10:40.599Z,17.07
2018-12-13T07:13:10.627Z,15.40
2018-12-13T07:15:39.876Z,14.10
2018-12-13T07:18:09.359Z,16.57
2018-12-13T07:20:39.211Z,16.60
2018-12-13T07:23:09.463Z,15.00
2018-12-13T07:25:38.721Z,15.80
2018-12-13T07:28:08.706Z,15.30
2018-12-13T07:30:38.552Z,13.57
2018-12-13T07:33:07.790Z,15.93
2018-12-13T07:35:37.100Z,14.17
2018-12-13T07:38:06.423Z,15.53
2018-12-13T07:40:35.577Z,14.10
2018-12-13T07:43:04.888Z,14.23
2018-12-13T07:45:34.215Z,13.07
2018-12-13T07:48:03.385Z,16.13
2018-12-13T07:50:32.625Z,11.37
2018-12-13T07:53:01.961Z,11.60
2018-12-13T07:55:31.178Z,12.20
2018-12-13T07:58:00.560Z,13.80
2018-12-13T08:00:31.486Z,12.23
2018-12-13T08:03:00.579Z,12.43
2018-12-13T08:05:29.710Z,12.93
2018-12-13T08:07:58.951Z,13.30
2018-12-13T08:10:28.087Z,13.17
2018-12-13T08:12:57.344Z,12.07
2018-12-13T08:15:26.640Z,15.30
2018-12-13T08:17:55.853Z,14.77
2018-12-13T08:20:25.049Z,15.90
2018-12-13T08:22:54.432Z,10.77
2018-12-13T08:25:23.703Z,11.53
2018-12-13T08:27:53.033Z,11.80
2018-12-13T08:30:22.240Z,10.40
2018-12-13T08:32:51.310Z,9.90
2018-12-13T08:35:20.690Z,11.23
2018-12-13T08:37:50.094Z,14.30
2018-12-13T08:40:19.176Z,12.13
2018-12-13T08:42:48.129Z,10.03
2018-12-13T08:45:17.136Z,10.30
2018-12-13T08:47:46.325Z,12.97
2018-12-13T08:50:16.092Z,10.10
2018-12-13T08:52:45.077Z,9.70
2018-12-13T08:55:14.033Z,10.20
2018-12-13T08:57:43.228Z,9.60
2018-12-13T09:00:12.232Z,12.70
2018-12-13T09:02:41.567Z,11.97
2018-12-13T09:05:10.775Z,10.47
2018-12-13T09:07:40.397Z,11.87
2018-12-13T09:10:10.436Z,10.23
2018-12-13T09:12:39.891Z,11.10
2018-12-13T09:15:09.272Z,10.37
2018-12-13T09:17:38.447Z,10.53
2018-12-13T09:20:08.017Z,10.87
2018-12-13T09:22:37.432Z,13.03
2018-12-13T09:25:06.739Z,11.40
2018-12-13T09:27:36.481Z,11.67
2018-12-13T09:30:07.380Z,10.77
2018-12-13T09:32:37.231Z,10.53
2018-12-13T09:35:06.588Z,9.87
2018-12-13T09:37:35.704Z,9.93
2018-12-13T09:40:05.330Z,11.77
2018-12-13T09:42:35.583Z,10.13
2018-12-13T09:45:06.196Z,10.17
2018-12-13T09:47:38.916Z,9.00
2018-12-13T09:50:08.040Z,10.90
2018-12-13T09:52:37.117Z,12.03
2018-12-13T09:55:06.589Z,15.47
2018-12-13T09:57:36.192Z,22.93
2018-12-13T10:00:07.865Z,26.57
2018-12-13T10:02:37.154Z,30.50
2018-12-13T10:05:06.420Z,19.60
2018-12-13T10:07:35.638Z,11.00
2018-12-13T10:10:05.168Z,12.57
2018-12-13T10:12:34.503Z,12.93
2018-12-13T10:15:03.799Z,9.60
2018-12-13T10:17:33.040Z,12.07
2018-12-13T10:20:02.445Z,9.67
2018-12-13T10:22:31.585Z,9.53
2018-12-13T10:25:00.498Z,11.13
2018-12-13T10:27:29.795Z,11.60
2018-12-13T10:29:58.933Z,10.57
2018-12-13T10:32:28.071Z,11.10
2018-12-13T10:34:57.353Z,8.90
2018-12-13T10:37:26.371Z,11.77
2018-12-13T10:39:55.480Z,11.17
2018-12-13T10:42:24.611Z,11.53
2018-12-13T10:44:53.735Z,8.87
2018-12-13T10:47:22.868Z,10.83
2018-12-13T10:49:51.956Z,13.17
2018-12-13T10:52:21.092Z,13.57
2018-12-13T10:54:50.342Z,10.63
2018-12-13T10:57:19.445Z,11.60
2018-12-13T10:59:48.527Z,13.03
2018-12-13T11:02:23.613Z,11.77
2018-12-13T11:04:52.729Z,11.20
2018-12-13T11:07:22.048Z,8.40
2018-12-13T11:09:51.322Z,12.33
2018-12-13T11:12:20.540Z,11.47
2018-12-13T11:14:49.984Z,12.57
2018-12-13T11:17:19.270Z,11.17
2018-12-13T11:19:48.413Z,11.70
2018-12-13T11:22:17.744Z,12.57
2018-12-13T11:24:46.893Z,10.33
2018-12-13T11:27:27.235Z,11.10
2018-12-13T11:30:36.447Z,11.50
2018-12-13T11:33:06.909Z,18.13
2018-12-13T11:35:36.117Z,21.30
2018-12-13T11:38:05.266Z,13.87
2018-12-13T11:40:34.423Z,18.90
2018-12-13T11:43:03.599Z,17.07
2018-12-13T11:45:33.509Z,15.77
2018-12-13T11:48:02.750Z,18.50
2018-12-13T11:50:31.787Z,13.63
2018-12-13T11:53:00.917Z,13.17
2018-12-13T11:55:35.758Z,13.07
2018-12-13T11:58:08.640Z,12.93
2018-12-13T12:00:37.963Z,12.23
2018-12-13T12:03:07.462Z,13.17
2018-12-13T12:05:37.504Z,10.37
2018-12-13T12:08:06.909Z,12.63
2018-12-13T12:10:36.108Z,11.20
2018-12-13T12:13:05.086Z,14.27
2018-12-13T12:15:34.239Z,10.93
2018-12-13T12:18:03.405Z,14.50
2018-12-13T12:20:32.538Z,12.60
2018-12-13T12:23:01.980Z,13.13
2018-12-13T12:25:31.046Z,11.30
2018-12-13T12:28:00.200Z,10.13
2018-12-13T12:30:29.410Z,11.90
2018-12-13T12:33:00.436Z,11.07
2018-12-13T12:35:30.791Z,12.30
2018-12-13T12:37:59.943Z,11.83
2018-12-13T12:40:29.496Z,12.30
2018-12-13T12:42:58.768Z,12.23
2018-12-13T12:45:28.029Z,12.07
2018-12-13T12:47:57.102Z,10.63
2018-12-13T12:50:27.114Z,12.20
2018-12-13T12:52:56.201Z,11.13
2018-12-13T12:55:25.377Z,12.07
2018-12-13T12:57:55.139Z,12.00
2018-12-13T13:00:24.724Z,11.57
2018-12-13T13:02:53.959Z,11.57
2018-12-13T13:05:23.160Z,12.93
2018-12-13T13:07:52.587Z,11.97
2018-12-13T13:10:22.288Z,12.43
2018-12-13T13:12:51.478Z,12.33
2018-12-13T13:15:20.671Z,11.10
2018-12-13T13:17:50.338Z,12.50
2018-12-13T13:20:19.705Z,12.83
2018-12-13T13:22:48.980Z,11.13
2018-12-13T13:25:18.228Z,12.00
2018-12-13T13:27:47.743Z,11.27
2018-12-13T13:30:17.081Z,12.70
2018-12-13T13:32:46.536Z,9.07
2018-12-13T13:35:15.642Z,12.37
2018-12-13T13:37:44.744Z,12.20
2018-12-13T13:40:13.731Z,12.00
2018-12-13T13:42:42.869Z,12.23
2018-12-13T13:45:12.662Z,9.13
2018-12-13T13:47:41.765Z,13.40
2018-12-13T13:50:10.995Z,11.43
2018-12-13T13:52:40.663Z,13.73
2018-12-13T13:55:09.729Z,13.80
2018-12-13T13:57:39.827Z,12.57
2018-12-13T14:00:10.367Z,11.07
2018-12-13T14:02:39.738Z,9.63
2018-12-13T14:05:08.874Z,12.77
2018-12-13T14:07:38.335Z,12.93
2018-12-13T14:10:08.032Z,11.60
2018-12-13T14:12:37.137Z,10.73
2018-12-13T14:15:06.910Z,11.87
2018-12-13T14:17:36.491Z,15.07
2018-12-13T14:20:06.200Z,10.97
2018-12-13T14:22:35.274Z,9.57
2018-12-13T14:25:04.664Z,11.73
2018-12-13T14:27:33.637Z,9.23
2018-12-13T14:30:03.635Z,16.70
2018-12-13T14:32:32.623Z,13.03
2018-12-13T14:35:01.712Z,10.03
2018-12-13T14:37:30.803Z,12.27
2018-12-13T14:39:59.937Z,14.63
2018-12-13T14:42:29.132Z,10.53
2018-12-13T14:45:00.527Z,8.97
2018-12-13T14:47:29.833Z,11.43
2018-12-13T14:49:59.013Z,11.67
2018-12-13T14:52:29.053Z,10.50
2018-12-13T14:54:58.417Z,9.87
2018-12-13T14:57:27.876Z,11.20
2018-12-13T14:59:57.163Z,9.83
2018-12-13T15:02:26.271Z,15.23
2018-12-13T15:04:55.842Z,11.60
2018-12-13T15:07:25.026Z,13.53
2018-12-13T15:09:54.108Z,16.10
2018-12-13T15:12:23.208Z,14.97
2018-12-13T15:14:52.547Z,15.10
2018-12-13T15:17:21.745Z,16.57
2018-12-13T15:19:51.012Z,14.63
2018-12-13T15:22:20.848Z,15.20
2018-12-13T15:24:49.981Z,17.70
2018-12-13T15:27:19.203Z,17.17
2018-12-13T15:29:48.197Z,17.80
2018-12-13T15:32:18.149Z,14.03
2018-12-13T15:34:47.317Z,16.30
2018-12-13T15:37:16.427Z,20.77
2018-12-13T15:39:45.555Z,15.30
2018-12-13T15:42:14.679Z,16.13
2018-12-13T15:44:45.916Z,15.97
2018-12-13T15:47:15.108Z,15.17
2018-12-13T15:49:44.442Z,15.07
2018-12-13T15:52:13.888Z,16.87
2018-12-13T15:54:43.253Z,17.10
2018-12-13T15:57:12.395Z,15.40
2018-12-13T15:59:41.497Z,17.00
2018-12-13T16:02:11.152Z,15.87
2018-12-13T16:04:40.377Z,14.83
2018-12-13T16:07:09.589Z,15.27
2018-12-13T16:09:38.797Z,16.63
2018-12-13T16:12:07.911Z,14.23
2018-12-13T16:14:39.025Z,17.63
2018-12-13T16:17:07.998Z,14.53
2018-12-13T16:19:36.980Z,14.37
2018-12-13T16:22:06.252Z,14.50
2018-12-13T16:24:35.607Z,14.23
2018-12-13T16:27:05.082Z,21.53
2018-12-13T16:29:34.254Z,20.43
2018-12-13T16:32:04.235Z,23.73
2018-12-13T16:34:33.294Z,14.67
2018-12-13T16:37:03.069Z,13.70
2018-12-13T16:39:32.338Z,13.37
2018-12-13T16:42:01.364Z,12.57
2018-12-13T16:44:30.647Z,12.73
2018-12-13T16:46:59.756Z,12.97
2018-12-13T16:49:28.920Z,12.90
2018-12-13T16:51:57.958Z,11.30
2018-12-13T16:54:27.047Z,14.07
2018-12-13T16:56:55.993Z,13.10
2018-12-13T16:59:25.042Z,13.53
2018-12-13T17:01:54.349Z,12.37
2018-12-13T17:04:23.272Z,13.00
2018-12-13T17:06:52.197Z,11.47
2018-12-13T17:09:21.180Z,11.77
2018-12-13T17:11:50.128Z,13.07
2018-12-13T17:14:19.549Z,13.83
2018-12-13T17:16:49.605Z,12.10
2018-12-13T17:19:18.909Z,11.97
2018-12-13T17:21:48.118Z,12.10
2018-12-13T17:24:17.099Z,13.40
2018-12-13T17:26:46.182Z,11.90
2018-12-13T17:29:15.271Z,12.03
2018-12-13T17:31:44.191Z,11.73
2018-12-13T17:34:13.107Z,13.20
2018-12-13T17:36:42.424Z,10.27
2018-12-13T17:39:11.351Z,13.00
2018-12-13T17:41:40.275Z,10.00
2018-12-13T17:44:09.324Z,12.57
2018-12-13T17:46:38.390Z,12.33
2018-12-13T17:49:07.310Z,10.90
2018-12-13T17:51:37.432Z,18.17
2018-12-13T17:54:06.600Z,15.40
2018-12-13T17:56:35.808Z,11.37
2018-12-13T17:59:04.871Z,13.90
2018-12-13T18:01:34.404Z,13.93
2018-12-13T18:04:03.501Z,13.57
2018-12-13T18:06:33.342Z,10.17
2018-12-13T18:09:02.348Z,13.97
2018-12-13T18:11:31.394Z,10.40
2018-12-13T18:14:00.493Z,9.73
2018-12-13T18:16:29.829Z,11.00
2018-12-13T18:18:59.197Z,13.70
2018-12-13T18:21:28.590Z,13.90
2018-12-13T18:23:57.998Z,12.23
2018-12-13T18:26:26.965Z,14.33
2018-12-13T18:28:56.063Z,12.20
2018-12-13T18:31:25.036Z,15.53
2018-12-13T18:33:54.142Z,12.03
2018-12-13T18:36:23.216Z,13.73
2018-12-13T18:38:52.238Z,13.63
2018-12-13T18:41:21.224Z,12.13
2018-12-13T18:43:50.517Z,13.67
2018-12-13T18:46:19.574Z,14.17
2018-12-13T18:48:48.831Z,12.37
2018-12-13T18:51:18.141Z,14.20
2018-12-13T18:53:47.115Z,12.40
2018-12-13T18:56:16.266Z,13.33
2018-12-13T18:58:45.351Z,12.63
2018-12-13T19:01:14.379Z,14.10
2018-12-13T19:03:43.494Z,16.93
2018-12-13T19:06:12.660Z,15.80
2018-12-13T19:08:41.707Z,16.70
2018-12-13T19:11:10.844Z,13.77
2018-12-13T19:13:40.304Z,15.30
2018-12-13T19:16:09.916Z,17.33
2018-12-13T19:18:38.912Z,16.30
2018-12-13T19:21:07.895Z,14.60
2018-12-13T19:23:36.956Z,14.83
2018-12-13T19:26:06.243Z,13.47
2018-12-13T19:28:35.217Z,15.60
2018-12-13T19:31:04.751Z,13.60
2018-12-13T19:33:34.182Z,14.23
2018-12-13T19:36:03.469Z,13.80
2018-12-13T19:38:33.092Z,14.30
2018-12-13T19:41:02.126Z,14.97
2018-12-13T19:43:31.053Z,15.87
2018-12-13T19:46:00.131Z,15.30
2018-12-13T19:48:29.655Z,14.50
2018-12-13T19:50:59.122Z,12.60
2018-12-13T19:53:28.543Z,17.53
2018-12-13T19:55:57.880Z,15.07
2018-12-13T19:58:26.765Z,11.70
2018-12-13T20:00:55.833Z,12.57
2018-12-13T20:03:24.851Z,13.53
2018-12-13T20:05:53.748Z,16.00
2018-12-13T20:08:23.039Z,13.80
2018-12-13T20:10:54.771Z,13.97
2018-12-13T20:13:22.977Z,15.83
2018-12-13T20:15:52.066Z,12.67
2018-12-13T20:18:21.364Z,14.70
2018-12-13T20:20:50.641Z,12.40
2018-12-13T20:23:19.874Z,12.03
2018-12-13T20:25:49.019Z,12.47
2018-12-13T20:28:18.176Z,13.67
2018-12-13T20:30:47.447Z,15.17
2018-12-13T20:33:20.052Z,15.90
2018-12-13T20:35:51.086Z,13.40
2018-12-13T20:38:22.417Z,14.67
2018-12-13T20:40:51.323Z,17.03
2018-12-13T20:43:20.453Z,17.47
2018-12-13T20:45:50.211Z,17.40
2018-12-13T20:48:19.146Z,16.87
2018-12-13T20:50:48.148Z,14.50
2018-12-13T20:53:17.244Z,15.20
2018-12-13T20:55:46.315Z,15.50
2018-12-13T20:58:15.509Z,14.50
2018-12-13T21:00:44.549Z,14.80
2018-12-13T21:03:13.789Z,14.43
2018-12-13T21:05:46.419Z,12.03
2018-12-13T21:08:15.766Z,12.90
2018-12-13T21:10:44.799Z,13.67
2018-12-13T21:13:13.845Z,16.27
2018-12-13T21:15:42.944Z,14.73
2018-12-13T21:18:11.952Z,12.53
2018-12-13T21:20:40.916Z,13.90
2018-12-13T21:23:12.729Z,15.13
2018-12-13T21:25:41.857Z,14.93
2018-12-13T21:28:11.030Z,15.97
2018-12-13T21:30:40.028Z,13.27
2018-12-13T21:33:09.105Z,14.47
2018-12-13T21:35:38.150Z,14.67
2018-12-13T21:38:07.338Z,13.40
2018-12-13T21:40:36.532Z,13.67
2018-12-13T21:43:05.633Z,14.33
2018-12-13T21:45:34.761Z,13.47
2018-12-13T21:48:04.266Z,15.67
2018-12-13T21:50:33.297Z,13.83
2018-12-13T21:53:02.668Z,14.20
2018-12-13T21:55:31.750Z,14.83
2018-12-13T21:58:04.017Z,14.00
2018-12-13T22:00:33.099Z,16.17
2018-12-13T22:03:02.171Z,13.97
2018-12-13T22:05:31.195Z,14.80
2018-12-13T22:08:00.237Z,14.03
2018-12-13T22:10:29.207Z,14.03
2018-12-13T22:12:58.172Z,14.40
2018-12-13T22:15:28.088Z,14.00
2018-12-13T22:17:57.091Z,14.60
2018-12-13T22:20:26.310Z,14.20
2018-12-13T22:22:55.372Z,13.47
2018-12-13T22:25:24.362Z,13.27
2018-12-13T22:27:53.526Z,14.70
2018-12-13T22:30:22.546Z,16.67
2018-12-13T22:32:51.466Z,15.43
2018-12-13T22:35:20.477Z,15.43
2018-12-13T22:37:49.913Z,15.03
2018-12-13T22:40:19.075Z,15.93
2018-12-13T22:42:48.015Z,15.07
2018-12-13T22:45:16.947Z,13.87
2018-12-13T22:47:45.980Z,15.03
2018-12-13T22:50:15.033Z,14.83
2018-12-13T22:52:44.258Z,15.53
2018-12-13T22:55:13.330Z,16.60
2018-12-13T22:57:42.575Z,15.90
2018-12-13T23:00:12.171Z,14.87
2018-12-13T23:02:41.220Z,14.80
2018-12-13T23:05:10.208Z,13.90
2018-12-13T23:07:39.557Z,14.77
2018-12-13T23:10:08.933Z,12.77
2018-12-13T23:12:37.924Z,14.07
2018-12-13T23:15:07.377Z,13.50
2018-12-13T23:17:36.539Z,12.87
2018-12-13T23:20:05.867Z,12.80
2018-12-13T23:22:35.396Z,13.63
2018-12-13T23:25:04.808Z,15.10
2018-12-13T23:27:33.929Z,14.67
2018-12-13T23:30:10.234Z,14.80
2018-12-13T23:32:39.139Z,14.40
2018-12-13T23:35:08.515Z,13.90
2018-12-13T23:37:37.531Z,18.67
2018-12-13T23:40:07.178Z,15.23
2018-12-13T23:42:36.505Z,17.00
2018-12-13T23:45:06.488Z,16.97
2018-12-13T23:47:36.129Z,16.10
2018-12-13T23:50:05.876Z,17.70
2018-12-13T23:52:34.936Z,16.30
2018-12-13T23:55:04.181Z,15.63
2018-12-13T23:57:33.613Z,15.43
